createdAt,value
2018-12-06T00:01:43.802Z,85.59
2018-12-06T00:04:12.172Z,86.06
2018-12-06T00:06:40.691Z,87.90
2018-12-06T00:09:09.011Z,85.96
2018-12-06T00:11:37.390Z,86.39
2018-12-06T00:14:06.421Z,88.15
2018-12-06T00:16:34.891Z,88.03
2018-12-06T00:19:09.452Z,89.26
2018-12-06T00:21:37.816Z,89.01
2018-12-06T00:24:06.193Z,90.35
2018-12-06T00:26:34.488Z,90.71
2018-12-06T00:29:02.798Z,90.85
2018-12-06T00:31:31.207Z,88.98
2018-12-06T00:34:02.760Z,89.75
2018-12-06T00:36:31.437Z,89.56
2018-12-06T00:38:59.778Z,90.06
2018-12-06T00:41:28.045Z,89.20
2018-12-06T00:43:56.715Z,89.84
2018-12-06T00:46:25.497Z,91.01
2018-12-06T00:48:53.975Z,90.37
2018-12-06T00:51:22.646Z,90.81
2018-12-06T00:53:51.065Z,89.61
2018-12-06T00:56:19.357Z,90.68
2018-12-06T00:58:47.653Z,90.28
2018-12-06T01:01:18.990Z,89.64
2018-12-06T01:03:47.705Z,88.82
2018-12-06T01:06:16.007Z,89.72
2018-12-06T01:08:44.324Z,89.62
2018-12-06T01:11:13.060Z,89.80
2018-12-06T01:13:41.321Z,90.90
2018-12-06T01:16:13.555Z,90.96
2018-12-06T01:18:44.632Z,90.62
2018-12-06T01:21:13.083Z,91.67
2018-12-06T01:23:41.367Z,90.02
2018-12-06T01:26:09.874Z,89.77
2018-12-06T01:28:38.078Z,90.22
2018-12-06T01:31:06.902Z,90.92
2018-12-06T01:33:35.273Z,89.92
2018-12-06T01:36:05.599Z,89.92
2018-12-06T01:38:34.377Z,90.05
2018-12-06T01:41:02.668Z,88.81
2018-12-06T01:43:30.865Z,88.68
2018-12-06T01:45:59.770Z,88.29
2018-12-06T01:48:28.360Z,88.77
2018-12-06T01:50:56.775Z,88.91
2018-12-06T01:53:25.284Z,88.64
2018-12-06T01:55:53.953Z,88.90
2018-12-06T01:58:22.806Z,87.64
2018-12-06T02:00:51.119Z,87.08
2018-12-06T02:03:19.288Z,87.10
2018-12-06T02:05:47.621Z,88.27
2018-12-06T02:08:15.972Z,87.87
2018-12-06T02:10:44.323Z,88.19
2018-12-06T02:13:12.859Z,88.29
2018-12-06T02:15:41.317Z,87.93
2018-12-06T02:18:09.641Z,87.90
2018-12-06T02:20:38.503Z,88.11
2018-12-06T02:23:07.081Z,87.24
2018-12-06T02:25:35.420Z,88.10
2018-12-06T02:28:03.699Z,87.98
2018-12-06T02:30:32.304Z,87.16
2018-12-06T02:33:01.216Z,87.44
2018-12-06T02:35:29.530Z,87.03
2018-12-06T02:37:58.277Z,87.36
2018-12-06T02:40:26.834Z,87.64
2018-12-06T02:42:55.031Z,88.05
2018-12-06T02:45:23.647Z,86.93
2018-12-06T02:47:51.977Z,87.80
2018-12-06T02:50:20.232Z,87.22
2018-12-06T02:52:48.486Z,88.24
2018-12-06T02:55:16.917Z,88.74
2018-12-06T02:57:45.145Z,88.94
2018-12-06T03:00:13.463Z,89.15
2018-12-06T03:02:41.921Z,87.51
2018-12-06T03:05:10.933Z,88.73
2018-12-06T03:07:39.472Z,88.32
2018-12-06T03:10:07.771Z,88.35
2018-12-06T03:12:36.381Z,88.26
2018-12-06T03:15:05.455Z,88.74
2018-12-06T03:17:33.777Z,88.98
2018-12-06T03:20:02.661Z,88.70
2018-12-06T03:22:30.940Z,89.96
2018-12-06T03:24:59.932Z,91.34
2018-12-06T03:27:28.336Z,91.40
2018-12-06T03:29:56.666Z,90.75
2018-12-06T03:32:25.063Z,92.22
2018-12-06T03:34:53.414Z,93.54
2018-12-06T03:37:21.728Z,93.39
2018-12-06T03:39:50.304Z,91.95
2018-12-06T03:42:18.686Z,92.08
2018-12-06T03:44:46.908Z,91.70
2018-12-06T03:47:15.235Z,92.68
2018-12-06T03:49:43.485Z,91.40
2018-12-06T03:52:12.235Z,91.68
2018-12-06T03:54:40.904Z,90.69
2018-12-06T03:57:09.617Z,90.92
2018-12-06T03:59:38.145Z,90.35
2018-12-06T04:02:07.059Z,90.93
2018-12-06T04:04:35.734Z,92.07
2018-12-06T04:07:04.266Z,91.58
2018-12-06T04:09:32.936Z,92.79
2018-12-06T04:12:01.740Z,92.37
2018-12-06T04:14:29.984Z,92.06
2018-12-06T04:16:58.242Z,91.96
2018-12-06T04:19:26.495Z,92.65
2018-12-06T04:21:55.129Z,92.71
2018-12-06T04:24:23.412Z,92.57
2018-12-06T04:26:51.841Z,92.29
2018-12-06T04:29:20.058Z,92.61
2018-12-06T04:31:48.548Z,91.45
2018-12-06T04:34:16.926Z,92.25
2018-12-06T04:36:45.474Z,91.62
2018-12-06T04:39:14.115Z,92.46
2018-12-06T04:41:42.437Z,92.26
2018-12-06T04:44:11.017Z,91.76
2018-12-06T04:46:39.330Z,91.30
2018-12-06T04:49:07.602Z,91.88
2018-12-06T04:51:35.881Z,91.75
2018-12-06T04:54:04.645Z,92.18
2018-12-06T04:56:33.174Z,92.22
2018-12-06T04:59:02.219Z,91.32
2018-12-06T05:01:30.798Z,90.69
2018-12-06T05:03:59.394Z,91.03
2018-12-06T05:06:27.990Z,90.69
2018-12-06T05:08:56.328Z,92.96
2018-12-06T05:11:24.629Z,93.24
2018-12-06T05:13:52.905Z,93.69
2018-12-06T05:16:21.437Z,92.04
2018-12-06T05:18:50.204Z,91.02
2018-12-06T05:21:18.842Z,91.71
2018-12-06T05:23:47.123Z,91.39
2018-12-06T05:26:15.792Z,92.00
2018-12-06T05:28:44.541Z,91.83
2018-12-06T05:31:12.851Z,90.25
2018-12-06T05:33:41.447Z,89.48
2018-12-06T05:36:09.695Z,90.17
2018-12-06T05:38:38.041Z,90.63
2018-12-06T05:41:06.601Z,90.18
2018-12-06T05:43:34.933Z,91.05
2018-12-06T05:46:03.532Z,91.03
2018-12-06T05:48:32.111Z,92.08
2018-12-06T05:51:00.626Z,91.77
2018-12-06T05:53:29.204Z,92.26
2018-12-06T05:55:58.185Z,91.39
2018-12-06T05:58:27.086Z,92.48
2018-12-06T06:00:55.372Z,92.15
2018-12-06T06:03:23.938Z,92.17
2018-12-06T06:05:52.315Z,92.09
2018-12-06T06:08:20.695Z,92.71
2018-12-06T06:10:49.602Z,93.20
2018-12-06T06:13:17.929Z,92.49
2018-12-06T06:15:46.230Z,91.58
2018-12-06T06:18:14.832Z,92.43
2018-12-06T06:20:43.073Z,92.36
2018-12-06T06:23:11.594Z,92.32
2018-12-06T06:25:39.847Z,92.38
2018-12-06T06:28:08.146Z,92.47
2018-12-06T06:30:36.736Z,92.63
2018-12-06T06:33:05.137Z,92.02
2018-12-06T06:35:36.115Z,90.74
2018-12-06T06:38:07.201Z,91.50
2018-12-06T06:40:37.968Z,90.19
2018-12-06T06:43:07.210Z,91.41
2018-12-06T06:45:35.805Z,91.51
2018-12-06T06:48:04.139Z,91.57
2018-12-06T06:50:32.388Z,90.62
2018-12-06T06:53:01.259Z,91.44
2018-12-06T06:55:29.478Z,91.66
2018-12-06T06:57:57.829Z,91.34
2018-12-06T07:00:26.005Z,92.65
2018-12-06T07:02:54.562Z,91.87
2018-12-06T07:05:22.924Z,91.74
2018-12-06T07:07:51.209Z,91.22
2018-12-06T07:10:19.545Z,91.72
2018-12-06T07:12:48.282Z,90.81
2018-12-06T07:15:16.659Z,91.34
2018-12-06T07:17:44.869Z,92.22
2018-12-06T07:20:13.217Z,92.48
2018-12-06T07:22:41.961Z,92.25
2018-12-06T07:25:10.234Z,91.63
2018-12-06T07:27:38.849Z,91.46
2018-12-06T07:30:12.301Z,90.40
2018-12-06T07:32:37.443Z,90.73
2018-12-06T07:35:06.382Z,91.51
2018-12-06T07:37:35.246Z,90.75
2018-12-06T07:40:03.989Z,89.82
2018-12-06T07:42:32.362Z,90.00
2018-12-06T07:45:00.752Z,89.57
2018-12-06T07:47:29.010Z,88.25
2018-12-06T07:49:57.342Z,89.92
2018-12-06T07:52:25.917Z,89.51
2018-12-06T07:54:54.572Z,90.06
2018-12-06T07:57:23.497Z,90.07
2018-12-06T07:59:51.955Z,91.06
2018-12-06T08:02:21.612Z,91.51
2018-12-06T08:04:50.204Z,90.93
2018-12-06T08:07:18.502Z,91.12
2018-12-06T08:09:47.081Z,90.66
2018-12-06T08:12:16.462Z,91.23
2018-12-06T08:14:45.071Z,90.98
2018-12-06T08:17:13.473Z,90.64
2018-12-06T08:19:42.112Z,91.37
2018-12-06T08:22:10.431Z,90.82
2018-12-06T08:24:38.689Z,91.07
2018-12-06T08:27:07.302Z,90.51
2018-12-06T08:29:36.209Z,90.55
2018-12-06T08:32:05.097Z,90.38
2018-12-06T08:34:33.523Z,90.40
2018-12-06T08:37:02.565Z,90.10
2018-12-06T08:39:30.854Z,89.79
2018-12-06T08:41:59.157Z,88.87
2018-12-06T08:44:27.712Z,88.62
2018-12-06T08:46:56.502Z,87.74
2018-12-06T08:49:24.815Z,88.33
2018-12-06T08:51:53.078Z,87.51
2018-12-06T08:54:21.255Z,87.80
2018-12-06T08:56:50.030Z,87.43
2018-12-06T08:59:18.468Z,86.28
2018-12-06T09:01:46.758Z,86.70
2018-12-06T09:04:21.817Z,86.85
2018-12-06T09:06:50.113Z,86.71
2018-12-06T09:09:18.784Z,86.12
2018-12-06T09:11:47.106Z,85.72
2018-12-06T09:14:15.498Z,86.09
2018-12-06T09:16:44.227Z,85.72
2018-12-06T09:19:12.563Z,84.79
2018-12-06T09:21:40.785Z,84.03
2018-12-06T09:24:09.679Z,83.92
2018-12-06T09:26:38.231Z,84.25
2018-12-06T09:29:06.528Z,84.18
2018-12-06T09:31:34.919Z,83.27
2018-12-06T09:34:06.060Z,82.33
2018-12-06T09:36:35.118Z,82.58
2018-12-06T09:39:05.406Z,81.20
2018-12-06T09:41:35.131Z,80.88
2018-12-06T09:44:03.840Z,81.40
2018-12-06T09:46:33.931Z,81.02
2018-12-06T09:49:03.952Z,80.42
2018-12-06T09:51:32.453Z,80.49
2018-12-06T09:54:01.611Z,79.92
2018-12-06T09:56:29.968Z,80.24
2018-12-06T09:58:58.172Z,80.05
2018-12-06T10:01:27.136Z,80.15
2018-12-06T10:03:55.445Z,79.61
2018-12-06T10:06:25.750Z,80.35
2018-12-06T10:08:54.148Z,79.46
2018-12-06T10:11:22.480Z,79.66
2018-12-06T10:13:51.463Z,79.33
2018-12-06T10:16:19.787Z,79.13
2018-12-06T10:18:48.141Z,79.59
2018-12-06T10:21:16.522Z,80.14
2018-12-06T10:23:44.844Z,79.41
2018-12-06T10:26:13.228Z,78.20
2018-12-06T10:28:41.871Z,77.75
2018-12-06T10:31:10.518Z,77.34
2018-12-06T10:33:39.103Z,76.79
2018-12-06T10:36:08.223Z,75.98
2018-12-06T10:38:36.575Z,76.12
2018-12-06T10:41:05.012Z,77.92
2018-12-06T10:43:33.296Z,78.33
2018-12-06T10:46:01.588Z,80.33
2018-12-06T10:48:29.949Z,79.99
2018-12-06T10:52:05.440Z,79.64
2018-12-06T10:54:34.126Z,80.60
2018-12-06T10:57:03.652Z,79.92
2018-12-06T10:59:33.299Z,78.77
2018-12-06T11:04:48.537Z,77.93
2018-12-06T11:07:16.798Z,77.19
2018-12-06T11:09:45.997Z,77.69
2018-12-06T11:12:14.352Z,77.98
2018-12-06T11:14:45.851Z,77.69
2018-12-06T11:17:14.358Z,77.64
2018-12-06T11:19:42.725Z,77.75
2018-12-06T11:22:11.366Z,78.03
2018-12-06T11:24:39.920Z,77.67
2018-12-06T11:27:08.398Z,78.07
2018-12-06T11:29:36.700Z,77.61
2018-12-06T11:32:06.340Z,77.52
2018-12-06T11:34:34.762Z,77.59
2018-12-06T11:37:04.488Z,76.81
2018-12-06T11:39:34.019Z,76.20
2018-12-06T11:42:03.195Z,76.39
2018-12-06T11:44:31.560Z,76.91
2018-12-06T11:46:59.939Z,76.19
2018-12-06T11:49:29.146Z,76.60
2018-12-06T11:51:57.509Z,77.18
2018-12-06T11:54:25.774Z,76.89
2018-12-06T11:56:54.230Z,76.83
2018-12-06T11:59:22.797Z,77.16
2018-12-06T12:01:51.142Z,77.68
2018-12-06T12:04:19.644Z,76.81
2018-12-06T12:06:48.002Z,76.15
2018-12-06T12:09:16.606Z,75.84
2018-12-06T12:11:44.977Z,76.26
2018-12-06T12:14:15.330Z,75.96
2018-12-06T12:16:43.847Z,75.61
2018-12-06T12:19:12.537Z,75.61
2018-12-06T12:21:44.298Z,75.08
2018-12-06T12:24:12.996Z,75.02
2018-12-06T12:26:41.342Z,74.71
2018-12-06T12:29:09.991Z,74.30
2018-12-06T12:31:39.414Z,75.60
2018-12-06T12:34:07.948Z,74.22
2018-12-06T12:36:36.365Z,73.88
2018-12-06T12:39:08.564Z,73.29
2018-12-06T12:41:36.862Z,74.40
2018-12-06T12:44:05.254Z,74.28
2018-12-06T12:46:33.607Z,72.60
2018-12-06T12:49:01.918Z,73.74
2018-12-06T12:51:30.139Z,73.59
2018-12-06T12:53:58.512Z,73.05
2018-12-06T12:56:26.763Z,72.77
2018-12-06T12:58:55.033Z,73.33
2018-12-06T13:01:23.404Z,72.14
2018-12-06T13:03:51.994Z,72.02
2018-12-06T13:06:20.293Z,71.73
2018-12-06T13:08:48.794Z,71.34
2018-12-06T13:11:17.220Z,67.90
2018-12-06T13:13:45.639Z,64.59
2018-12-06T13:16:14.503Z,63.40
2018-12-06T13:18:43.082Z,60.22
2018-12-06T13:21:11.347Z,52.41
2018-12-06T13:23:39.701Z,52.55
2018-12-06T13:26:08.290Z,48.45
2018-12-06T13:28:36.739Z,49.17
2018-12-06T13:31:05.893Z,50.83
2018-12-06T13:33:34.480Z,51.28
2018-12-06T13:36:02.860Z,52.39
2018-12-06T13:38:31.179Z,51.20
2018-12-06T13:40:59.572Z,51.38
2018-12-06T13:43:27.959Z,49.10
2018-12-06T13:45:56.301Z,52.19
2018-12-06T13:51:04.790Z,59.62
2018-12-06T13:53:33.035Z,60.42
2018-12-06T13:56:01.387Z,60.56
2018-12-06T13:58:29.950Z,60.04
2018-12-06T14:00:59.161Z,61.54
2018-12-06T14:03:28.550Z,61.53
2018-12-06T14:05:57.102Z,61.28
2018-12-06T14:08:25.529Z,62.24
2018-12-06T14:10:53.835Z,63.41
2018-12-06T14:13:23.748Z,63.87
2018-12-06T14:15:53.406Z,64.87
2018-12-06T14:18:21.687Z,63.96
2018-12-06T14:20:50.023Z,63.40
2018-12-06T14:23:18.396Z,64.84
2018-12-06T14:25:47.002Z,66.40
2018-12-06T14:28:15.639Z,66.66
2018-12-06T14:30:44.049Z,66.65
2018-12-06T14:33:12.509Z,67.87
2018-12-06T14:35:40.921Z,69.50
2018-12-06T14:38:09.309Z,69.08
2018-12-06T14:40:37.615Z,69.74
2018-12-06T14:43:06.351Z,69.42
2018-12-06T14:45:34.900Z,69.84
2018-12-06T14:48:03.299Z,71.29
2018-12-06T14:50:31.950Z,71.06
2018-12-06T14:53:01.039Z,71.85
2018-12-06T14:55:29.686Z,71.85
2018-12-06T14:57:57.942Z,72.09
2018-12-06T15:00:26.573Z,72.28
2018-12-06T15:02:54.981Z,72.66
2018-12-06T15:05:23.871Z,73.45
2018-12-06T15:07:52.195Z,74.69
2018-12-06T15:10:21.013Z,74.28
2018-12-06T15:12:49.321Z,74.48
2018-12-06T15:15:17.887Z,75.41
2018-12-06T15:17:46.484Z,75.15
2018-12-06T15:20:14.766Z,75.79
2018-12-06T15:22:43.378Z,75.32
2018-12-06T15:25:12.119Z,76.40
2018-12-06T15:27:41.137Z,76.66
2018-12-06T15:30:09.860Z,76.74
2018-12-06T15:32:38.141Z,77.18
2018-12-06T15:35:07.178Z,77.99
2018-12-06T15:37:35.546Z,78.58
2018-12-06T15:40:05.409Z,77.87
2018-12-06T15:42:33.807Z,77.33
2018-12-06T15:45:02.103Z,77.40
2018-12-06T15:47:31.603Z,78.61
2018-12-06T15:50:00.188Z,79.05
2018-12-06T15:52:28.804Z,79.12
2018-12-06T15:54:57.182Z,78.95
2018-12-06T15:57:26.000Z,77.99
2018-12-06T15:59:54.497Z,78.10
2018-12-06T16:02:22.759Z,77.79
2018-12-06T16:04:51.010Z,77.82
2018-12-06T16:07:20.511Z,77.88
2018-12-06T16:09:49.451Z,77.91
2018-12-06T16:12:17.838Z,77.53
2018-12-06T16:14:46.289Z,78.07
2018-12-06T16:17:15.414Z,78.25
2018-12-06T16:19:43.744Z,78.44
2018-12-06T16:22:12.070Z,77.49
2018-12-06T16:24:40.899Z,77.63
2018-12-06T16:27:09.210Z,77.71
2018-12-06T16:29:38.137Z,77.55
2018-12-06T16:32:07.727Z,77.46
2018-12-06T16:34:36.123Z,77.55
2018-12-06T16:37:04.808Z,77.68
2018-12-06T16:39:33.225Z,77.52
2018-12-06T16:42:01.770Z,78.84
2018-12-06T16:44:30.158Z,79.94
2018-12-06T16:46:59.638Z,80.49
2018-12-06T16:49:29.389Z,80.25
2018-12-06T16:51:59.414Z,80.23
2018-12-06T16:54:27.747Z,80.48
2018-12-06T16:56:56.350Z,80.39
2018-12-06T16:59:25.131Z,80.36
2018-12-06T17:01:54.469Z,80.44
2018-12-06T17:04:22.997Z,81.13
2018-12-06T17:06:51.943Z,80.99
2018-12-06T17:09:21.060Z,80.61
2018-12-06T17:11:50.727Z,81.45
2018-12-06T17:14:20.406Z,80.75
2018-12-06T17:16:49.956Z,80.80
2018-12-06T17:19:19.779Z,79.80
2018-12-06T17:21:48.325Z,79.56
2018-12-06T17:24:17.238Z,79.61
2018-12-06T17:26:46.832Z,79.96
2018-12-06T17:29:15.822Z,79.44
2018-12-06T17:31:44.509Z,79.76
2018-12-06T17:34:13.045Z,79.43
2018-12-06T17:36:41.722Z,78.95
2018-12-06T17:39:10.236Z,79.42
2018-12-06T17:41:39.618Z,78.50
2018-12-06T17:44:08.856Z,78.96
2018-12-06T17:46:37.113Z,79.41
2018-12-06T17:49:05.719Z,79.22
2018-12-06T17:51:34.430Z,78.93
2018-12-06T17:54:02.732Z,79.60
2018-12-06T17:56:31.549Z,79.45
2018-12-06T17:58:59.734Z,79.85
2018-12-06T18:01:28.471Z,79.17
2018-12-06T18:03:57.019Z,79.33
2018-12-06T18:06:25.919Z,78.91
2018-12-06T18:08:54.802Z,79.67
2018-12-06T18:11:23.377Z,79.59
2018-12-06T18:13:53.172Z,78.75
2018-12-06T18:16:22.471Z,79.15
2018-12-06T18:18:51.237Z,79.18
2018-12-06T18:21:19.700Z,79.16
2018-12-06T18:23:48.089Z,79.32
2018-12-06T18:26:16.610Z,78.99
2018-12-06T18:28:46.043Z,78.91
2018-12-06T18:31:14.563Z,78.95
2018-12-06T18:33:44.406Z,79.08
2018-12-06T18:36:13.768Z,79.63
2018-12-06T18:38:43.558Z,79.71
2018-12-06T18:41:13.068Z,80.70
2018-12-06T18:43:42.404Z,80.58
2018-12-06T18:46:11.546Z,79.69
2018-12-06T18:48:40.147Z,80.11
2018-12-06T18:51:08.828Z,79.42
2018-12-06T18:53:39.061Z,79.66
2018-12-06T18:56:07.832Z,79.79
2018-12-06T18:58:36.293Z,79.42
2018-12-06T19:01:05.791Z,79.96
2018-12-06T19:03:34.482Z,79.49
2018-12-06T19:06:02.913Z,79.24
2018-12-06T19:08:31.215Z,79.96
2018-12-06T19:10:59.926Z,80.29
2018-12-06T19:13:29.152Z,79.76
2018-12-06T19:15:57.750Z,78.60
2018-12-06T19:21:06.346Z,79.08
2018-12-06T19:23:34.787Z,78.63
2018-12-06T19:26:04.076Z,78.17
2018-12-06T19:28:32.359Z,77.44
2018-12-06T19:31:01.215Z,78.20
2018-12-06T19:33:29.867Z,78.34
2018-12-06T19:35:58.739Z,78.70
2018-12-06T19:38:27.055Z,78.09
2018-12-06T19:40:55.555Z,78.50
2018-12-06T19:43:24.146Z,78.91
2018-12-06T19:45:54.421Z,78.42
2018-12-06T19:48:22.994Z,78.85
2018-12-06T19:50:51.564Z,78.65
2018-12-06T19:53:21.326Z,78.70
2018-12-06T19:55:49.694Z,78.68
2018-12-06T19:58:18.033Z,79.63
2018-12-06T20:00:46.395Z,79.63
2018-12-06T20:03:14.990Z,80.45
2018-12-06T20:05:43.519Z,81.22
2018-12-06T20:08:12.009Z,80.15
2018-12-06T20:10:40.319Z,79.33
2018-12-06T20:13:08.698Z,79.03
2018-12-06T20:15:37.386Z,79.34
2018-12-06T20:18:05.705Z,79.26
2018-12-06T20:20:34.049Z,79.00
2018-12-06T20:23:02.467Z,79.78
2018-12-06T20:25:30.774Z,79.38
2018-12-06T20:27:59.189Z,78.93
2018-12-06T20:30:27.689Z,79.80
2018-12-06T20:32:56.099Z,79.38
2018-12-06T20:35:24.860Z,79.87
2018-12-06T20:37:54.093Z,80.06
2018-12-06T20:40:22.457Z,78.90
2018-12-06T20:42:50.991Z,79.14
2018-12-06T20:45:19.454Z,78.86
2018-12-06T20:47:47.839Z,79.54
2018-12-06T20:50:16.407Z,79.54
2018-12-06T20:52:44.759Z,79.16
2018-12-06T20:55:13.313Z,79.29
2018-12-06T20:57:42.040Z,79.70
2018-12-06T21:00:10.455Z,79.51
2018-12-06T21:02:39.547Z,79.24
2018-12-06T21:05:08.224Z,79.53
2018-12-06T21:07:36.887Z,79.57
2018-12-06T21:10:06.192Z,79.14
2018-12-06T21:12:34.826Z,78.94
2018-12-06T21:15:03.203Z,79.61
2018-12-06T21:17:31.572Z,78.71
2018-12-06T21:19:59.866Z,79.52
2018-12-06T21:22:28.602Z,79.42
2018-12-06T21:24:57.490Z,79.31
2018-12-06T21:27:25.926Z,78.93
2018-12-06T21:29:55.260Z,79.69
2018-12-06T21:32:23.573Z,79.68
2018-12-06T21:34:52.906Z,79.73
2018-12-06T21:37:21.577Z,79.46
2018-12-06T21:39:51.065Z,79.58
2018-12-06T21:42:19.678Z,79.45
2018-12-06T21:44:48.399Z,79.23
2018-12-06T21:47:22.337Z,79.12
2018-12-06T21:49:50.616Z,79.65
2018-12-06T21:52:19.204Z,79.76
2018-12-06T21:54:47.570Z,79.57
2018-12-06T21:57:16.236Z,79.16
2018-12-06T21:59:44.928Z,79.48
2018-12-06T22:02:25.747Z,79.41
2018-12-06T22:04:54.944Z,79.29
2018-12-06T22:07:23.410Z,79.25
2018-12-06T22:09:52.036Z,79.68
2018-12-06T22:12:20.519Z,79.21
2018-12-06T22:14:49.217Z,79.55
2018-12-06T22:17:18.093Z,79.42
2018-12-06T22:19:46.454Z,79.34
2018-12-06T22:22:15.059Z,79.52
2018-12-06T22:24:43.738Z,79.17
2018-12-06T22:27:12.995Z,79.69
2018-12-06T22:29:41.594Z,79.06
2018-12-06T22:32:09.914Z,79.04
2018-12-06T22:34:38.230Z,79.22
2018-12-06T22:37:06.866Z,79.40
2018-12-06T22:39:35.115Z,79.71
2018-12-06T22:42:04.052Z,79.43
2018-12-06T22:44:33.277Z,79.62
2018-12-06T22:47:02.523Z,79.84
2018-12-06T22:49:31.309Z,79.04
2018-12-06T22:51:59.978Z,78.99
2018-12-06T22:54:28.305Z,78.63
2018-12-06T22:56:56.842Z,79.07
2018-12-06T22:59:25.135Z,79.10
2018-12-06T23:01:53.896Z,79.05
2018-12-06T23:04:22.694Z,79.34
2018-12-06T23:06:51.050Z,78.99
2018-12-06T23:09:19.493Z,79.23
2018-12-06T23:11:48.031Z,79.44
2018-12-06T23:14:16.927Z,79.78
2018-12-06T23:16:45.203Z,79.38
2018-12-06T23:19:13.786Z,79.77
2018-12-06T23:21:42.472Z,79.95
2018-12-06T23:24:10.696Z,80.22
2018-12-06T23:26:39.264Z,80.18
2018-12-06T23:29:07.655Z,79.68
2018-12-06T23:31:36.184Z,79.94
2018-12-06T23:34:04.606Z,80.07
2018-12-06T23:36:33.191Z,79.85
2018-12-06T23:39:01.500Z,80.69
2018-12-06T23:41:31.028Z,80.91
2018-12-06T23:43:59.378Z,80.40
2018-12-06T23:46:27.677Z,80.34
2018-12-06T23:48:56.275Z,80.49
2018-12-06T23:51:37.281Z,80.73
2018-12-06T23:54:05.935Z,80.55
2018-12-06T23:56:34.323Z,80.58
2018-12-06T23:59:04.909Z,81.17
